| time (UTC) | temp F | wind direction | speed MPH | gust MPH | rain 1hr in | rain 24hr in | rain mn in | humidity % | barometer mb |
| 20260506062403 | 49 | 327 | 1.0 | 3.0 | 0.05 | 0.00 | 0.35 | 99 | 1006.2 |
| 20260506061904 | 49 | 336 | 0.0 | 2.0 | 0.05 | 0.00 | 0.35 | 99 | 1006.2 |
| 20260506061403 | 49 | 184 | 1.0 | 2.0 | 0.05 | 0.00 | 0.35 | 99 | 1006.2 |
| 20260506060903 | 49 | 313 | 2.0 | 6.0 | 0.05 | 0.00 | 0.35 | 99 | 1006.1 |
| 20260506060404 | 49 | 259 | 2.0 | 3.0 | 0.05 | 0.00 | 0.35 | 99 | 1006.1 |
| 20260506051404 | 49 | 68 | 0.0 | 2.0 | 0.03 | 0.00 | 0.30 | 99 | 1006.0 |
| 20260506050914 | 49 | 192 | 1.0 | 2.0 | 0.03 | 0.00 | 0.30 | 99 | 1006.0 |
| 20260506050403 | 49 | 329 | 1.0 | 2.0 | 0.03 | 0.00 | 0.30 | 99 | 1005.9 |
| 20260506044903 | 49 | 252 | 1.0 | 4.0 | 0.03 | 0.00 | 0.28 | 99 | 1005.9 |
| 20260506044403 | 49 | 83 | 1.0 | 2.0 | 0.03 | 0.00 | 0.28 | 99 | 1005.9 |
| 20260506043903 | 49 | 60 | 0.0 | 2.0 | 0.05 | 0.00 | 0.28 | 99 | 1005.9 |
| 20260506043404 | 49 | 85 | 1.0 | 3.0 | 0.03 | 0.00 | 0.27 | 99 | 1005.8 |
| 20260506042903 | 49 | 120 | 2.0 | 4.0 | 0.05 | 0.00 | 0.27 | 99 | 1005.9 |
| 20260506042413 | 49 | 317 | 1.0 | 2.0 | 0.05 | 0.00 | 0.27 | 99 | 1005.9 |
| 20260506041903 | 49 | 306 | 1.0 | 2.0 | 0.05 | 0.00 | 0.27 | 99 | 1005.9 |
| 20260506041404 | 49 | 191 | 1.0 | 4.0 | 0.06 | 0.00 | 0.27 | 99 | 1005.9 |
| 20260506040903 | 49 | 97 | 1.0 | 3.0 | 0.06 | 0.00 | 0.27 | 99 | 1005.8 |
| 20260506040413 | 49 | 340 | 1.0 | 3.0 | 0.06 | 0.00 | 0.27 | 99 | 1005.9 |
| 20260506035904 | 49 | 346 | 1.0 | 3.0 | 0.06 | 0.00 | 0.25 | 99 | 1005.9 |
| 20260506035403 | 49 | 196 | 1.0 | 4.0 | 0.06 | 0.00 | 0.25 | 99 | 1005.9 |
| 20260506034903 | 49 | 161 | 1.0 | 3.0 | 0.08 | 0.00 | 0.25 | 99 | 1005.9 |
| 20260506034413 | 49 | 292 | 1.0 | 3.0 | 0.06 | 0.00 | 0.24 | 99 | 1005.9 |
| 20260506033904 | 49 | 304 | 1.0 | 2.0 | 0.06 | 0.00 | 0.24 | 99 | 1006.0 |
| 20260506033404 | 49 | 312 | 0.0 | 3.0 | 0.06 | 0.00 | 0.24 | 99 | 1006.0 |
| 20260506032903 | 48 | 310 | 0.0 | 2.0 | 0.06 | 0.00 | 0.22 | 99 | 1006.0 |
| 20260506032403 | 48 | 156 | 1.0 | 4.0 | 0.06 | 0.00 | 0.22 | 99 | 1006.0 |
| 20260506031904 | 49 | 148 | 0.0 | 1.0 | 0.06 | 0.00 | 0.22 | 99 | 1006.1 |
| 20260506031403 | 48 | 113 | 1.0 | 2.0 | 0.06 | 0.00 | 0.20 | 99 | 1006.1 |
| 20260506030903 | 48 | 328 | 2.0 | 5.0 | 0.06 | 0.00 | 0.20 | 99 | 1006.1 |
| 20260506030403 | 48 | 341 | 0.0 | 2.0 | 0.08 | 0.00 | 0.20 | 99 | 1006.2 |
| 20260506025904 | 48 | 267 | 2.0 | 3.0 | 0.08 | 0.00 | 0.19 | 99 | 1006.3 |
| 20260506025403 | 48 | 162 | 1.0 | 2.0 | 0.08 | 0.00 | 0.19 | 99 | 1006.3 |
| 20260506024903 | 48 | 110 | 1.0 | 2.0 | 0.06 | 0.00 | 0.17 | 99 | 1006.3 |
| 20260506024404 | 48 | 138 | 1.0 | 2.0 | 0.08 | 0.00 | 0.17 | 99 | 1006.3 |
| 20260506023904 | 48 | 321 | 1.0 | 2.0 | 0.08 | 0.00 | 0.17 | 99 | 1006.3 |
| 20260506023403 | 48 | 87 | 0.0 | 2.0 | 0.08 | 0.00 | 0.17 | 99 | 1006.4 |
| 20260506022903 | 48 | 27 | 0.0 | 2.0 | 0.06 | 0.00 | 0.16 | 99 | 1006.4 |
| 20260506022404 | 48 | 31 | 1.0 | 2.0 | 0.08 | 0.00 | 0.16 | 99 | 1006.4 |
| 20260506021903 | 48 | 35 | 1.0 | 2.0 | 0.08 | 0.00 | 0.16 | 99 | 1006.4 |
| 20260506021403 | 48 | 90 | 0.0 | 2.0 | 0.06 | 0.00 | 0.14 | 99 | 1006.4 |
| 20260506020903 | 48 | 333 | 2.0 | 4.0 | 0.06 | 0.00 | 0.13 | 99 | 1006.5 |
| 20260506020404 | 48 | 290 | 1.0 | 3.0 | 0.06 | 0.00 | 0.13 | 99 | 1006.5 |
| 20260506015903 | 48 | 155 | 0.0 | 2.0 | 0.05 | 0.00 | 0.11 | 99 | 1006.5 |
| 20260506015403 | 48 | 85 | 1.0 | 2.0 | 0.05 | 0.00 | 0.11 | 99 | 1006.5 |
| 20260506014904 | 48 | 89 | 1.0 | 2.0 | 0.06 | 0.00 | 0.11 | 99 | 1006.5 |
| 20260506014403 | 49 | 325 | 0.0 | 2.0 | 0.05 | 0.00 | 0.09 | 99 | 1006.5 |
| 20260506013903 | 49 | 315 | 1.0 | 4.0 | 0.05 | 0.00 | 0.09 | 99 | 1006.6 |
| 20260506013403 | 49 | 212 | 0.0 | 2.0 | 0.05 | 0.00 | 0.09 | 99 | 1006.6 |
| 20260506012903 | 49 | 12 | 1.0 | 2.0 | 0.05 | 0.00 | 0.09 | 99 | 1006.7 |
| 20260506012403 | 49 | 221 | 1.0 | 4.0 | 0.03 | 0.00 | 0.08 | 99 | 1006.7 |
| 20260506011903 | 49 | 262 | 0.0 | 2.0 | 0.03 | 0.00 | 0.08 | 99 | 1006.6 |
| 20260506011404 | 49 | 260 | 0.0 | 2.0 | 0.05 | 0.00 | 0.08 | 99 | 1006.7 |
| 20260506010903 | 49 | 256 | 1.0 | 2.0 | 0.03 | 0.00 | 0.06 | 99 | 1006.7 |
| 20260506010403 | 49 | 311 | 1.0 | 4.0 | 0.03 | 0.00 | 0.06 | 99 | 1006.7 |
| 20260506005904 | 49 | 327 | 0.0 | 3.0 | 0.03 | 0.00 | 0.06 | 99 | 1006.8 |
| 20260506005403 | 49 | 328 | 1.0 | 2.0 | 0.03 | 0.00 | 0.06 | 99 | 1006.8 |
| 20260506004903 | 49 | 318 | 0.0 | 3.0 | 0.02 | 0.00 | 0.05 | 99 | 1006.8 |
| 20260506004403 | 49 | 322 | 1.0 | 3.0 | 0.02 | 0.00 | 0.05 | 99 | 1006.9 |
| 20260506003904 | 49 | 306 | 1.0 | 2.0 | 0.02 | 0.00 | 0.05 | 99 | 1006.9 |
| 20260506003403 | 49 | 303 | 1.0 | 3.0 | 0.02 | 0.00 | 0.05 | 99 | 1006.9 |
| 20260506002913 | 49 | 293 | 2.0 | 5.0 | 0.03 | 0.00 | 0.05 | 99 | 1007.0 |
| 20260506002403 | 49 | 278 | 1.0 | 3.0 | 0.03 | 0.00 | 0.05 | 99 | 1007.0 |
| 20260506001904 | 49 | 233 | 1.0 | 2.0 | 0.03 | 0.00 | 0.05 | 99 | 1007.1 |
| 20260506001403 | 49 | 308 | 1.0 | 2.0 | 0.02 | 0.00 | 0.03 | 99 | 1007.1 |
| 20260506000913 | 49 | 307 | 1.0 | 2.0 | 0.02 | 0.00 | 0.03 | 99 | 1007.2 |
| 20260506000403 | 49 | 312 | 1.0 | 2.0 | 0.02 | 0.00 | 0.03 | 99 | 1007.2 |
| 20260505235904 | 49 | 312 | 2.0 | 4.0 | 0.02 | 0.00 | 0.03 | 99 | 1007.2 |
| 20260505235403 | 49 | 311 | 1.0 | 2.0 | 0.02 | 0.00 | 0.03 | 99 | 1007.2 |
| 20260505234913 | 49 | 309 | 1.0 | 3.0 | 0.02 | 0.00 | 0.03 | 99 | 1007.2 |
| 20260505234404 | 49 | 176 | 1.0 | 3.0 | 0.02 | 0.00 | 0.03 | 99 | 1007.3 |
| 20260505233903 | 49 | 33 | 1.0 | 3.0 | 0.02 | 0.00 | 0.03 | 99 | 1007.4 |
| 20260505233403 | 49 | 201 | 2.0 | 3.0 | 0.02 | 0.00 | 0.03 | 99 | 1007.4 |
| 20260505232903 | 49 | 315 | 1.0 | 4.0 | 0.00 | 0.00 | 0.02 | 99 | 1007.4 |
| 20260505232404 | 50 | 276 | 0.0 | 2.0 | 0.00 | 0.00 | 0.02 | 99 | 1007.4 |
| 20260505231903 | 50 | 307 | 2.0 | 3.0 | 0.00 | 0.00 | 0.02 | 99 | 1007.5 |
| 20260505231403 | 50 | 329 | 1.0 | 2.0 | 0.00 | 0.00 | 0.02 | 99 | 1007.5 |
| 20260505230903 | 50 | 291 | 2.0 | 5.0 | 0.00 | 0.00 | 0.02 | 99 | 1007.5 |
| 20260505230404 | 50 | 269 | 1.0 | 4.0 | 0.00 | 0.00 | 0.02 | 99 | 1007.4 |
| 20260505225913 | 50 | 259 | 2.0 | 2.0 | 0.02 | 0.00 | 0.02 | 99 | 1007.5 |
| 20260505225403 | 50 | 306 | 1.0 | 2.0 | 0.02 | 0.00 | 0.02 | 99 | 1007.6 |
| 20260505224903 | 50 | 313 | 2.0 | 2.0 | 0.02 | 0.00 | 0.02 | 99 | 1007.6 |
| 20260505224404 | 50 | 328 | 1.0 | 2.0 | 0.02 | 0.00 | 0.02 | 99 | 1007.6 |
| 20260505223903 | 50 | 332 | 1.0 | 4.0 | 0.02 | 0.00 | 0.02 | 99 | 1007.6 |
| 20260505223403 | 50 | 323 | 1.0 | 4.0 | 0.02 | 0.00 | 0.02 | 98 | 1007.7 |
| 20260505222903 | 50 | 318 | 1.0 | 4.0 | 0.02 | 0.00 | 0.02 | 98 | 1007.7 |
| 20260505222414 | 50 | 324 | 1.0 | 2.0 | 0.02 | 0.00 | 0.02 | 98 | 1007.8 |
| 20260505221903 | 50 | 240 | 1.0 | 4.0 | 0.02 | 0.00 | 0.02 | 98 | 1007.8 |
| 20260505221403 | 50 | 151 | 1.0 | 2.0 | 0.02 | 0.00 | 0.02 | 98 | 1007.8 |
| 20260505220904 | 50 | 255 | 1.0 | 2.0 | 0.02 | 0.00 | 0.02 | 98 | 1007.8 |
| 20260505220404 | 50 | 293 | 1.0 | 2.0 | 0.02 | 0.00 | 0.02 | 98 | 1007.8 |
| 20260505215903 | 50 | 283 | 1.0 | 2.0 | 0.00 | 0.00 | 0.08 | 98 | 1007.8 |
| 20260505215403 | 50 | 174 | 2.0 | 3.0 | 0.00 | 0.00 | 0.08 | 98 | 1007.8 |
| 20260505214904 | 50 | 229 | 2.0 | 4.0 | 0.00 | 0.00 | 0.08 | 98 | 1007.9 |
| 20260505214403 | 50 | 308 | 1.0 | 3.0 | 0.00 | 0.00 | 0.08 | 99 | 1007.9 |
| 20260505213903 | 50 | 301 | 1.0 | 2.0 | 0.00 | 0.00 | 0.08 | 99 | 1008.0 |
| 20260505213403 | 50 | 236 | 1.0 | 3.0 | 0.00 | 0.00 | 0.08 | 99 | 1008.0 |
| 20260505212904 | 50 | 188 | 1.0 | 3.0 | 0.00 | 0.00 | 0.08 | 99 | 1008.0 |
| 20260505212413 | 50 | 243 | 1.0 | 3.0 | 0.00 | 0.00 | 0.08 | 99 | 1008.0 |
| 20260505211903 | 50 | 319 | 2.0 | 4.0 | 0.00 | 0.00 | 0.08 | 99 | 1008.0 |
| 20260505211414 | 50 | 237 | 1.0 | 4.0 | 0.00 | 0.00 | 0.08 | 99 | 1008.1 |
| 20260505210913 | 51 | 181 | 2.0 | 4.0 | 0.00 | 0.00 | 0.08 | 99 | 1008.1 |
| 20260505210413 | 51 | 350 | 1.0 | 3.0 | 0.00 | 0.00 | 0.08 | 99 | 1008.1 |
| 20260505205903 | 51 | 272 | 1.0 | 2.0 | 0.00 | 0.00 | 0.08 | 99 | 1008.2 |
| 20260505205404 | 51 | 158 | 1.0 | 4.0 | 0.00 | 0.00 | 0.08 | 99 | 1008.2 |
| 20260505204903 | 51 | 52 | 1.0 | 2.0 | 0.00 | 0.00 | 0.08 | 99 | 1008.2 |
| 20260505204413 | 51 | 60 | 1.0 | 2.0 | 0.00 | 0.00 | 0.08 | 99 | 1008.2 |
| 20260505203913 | 51 | 239 | 1.0 | 2.0 | 0.00 | 0.00 | 0.08 | 99 | 1008.2 |
| 20260505203404 | 51 | 296 | 2.0 | 4.0 | 0.00 | 0.00 | 0.08 | 99 | 1008.2 |
| 20260505202913 | 51 | 279 | 1.0 | 4.0 | 0.00 | 0.00 | 0.08 | 99 | 1008.2 |
| 20260505202403 | 51 | 294 | 0.0 | 2.0 | 0.00 | 0.00 | 0.08 | 99 | 1008.2 |
| 20260505201903 | 51 | 321 | 1.0 | 3.0 | 0.00 | 0.00 | 0.08 | 99 | 1008.1 |
| 20260505201404 | 51 | 222 | 2.0 | 4.0 | 0.00 | 0.00 | 0.08 | 99 | 1008.1 |
| 20260505200903 | 51 | 90 | 2.0 | 5.0 | 0.00 | 0.00 | 0.08 | 99 | 1008.1 |
| 20260505200403 | 51 | 169 | 1.0 | 2.0 | 0.00 | 0.00 | 0.08 | 99 | 1008.1 |
| 20260505195904 | 51 | 113 | 2.0 | 6.0 | 0.00 | 0.00 | 0.08 | 99 | 1008.1 |
| 20260505195403 | 51 | 69 | 1.0 | 2.0 | 0.00 | 0.00 | 0.08 | 99 | 1008.2 |
| 20260505194913 | 51 | 42 | 1.0 | 1.0 | 0.00 | 0.00 | 0.08 | 99 | 1008.1 |
| 20260505194403 | 51 | 62 | 2.0 | 4.0 | 0.00 | 0.00 | 0.08 | 99 | 1008.1 |
| 20260505193904 | 51 | 296 | 1.0 | 2.0 | 0.00 | 0.00 | 0.08 | 99 | 1008.1 |
| 20260505193404 | 51 | 119 | 2.0 | 4.0 | 0.00 | 0.00 | 0.08 | 99 | 1008.1 |
| 20260505192903 | 51 | 89 | 1.0 | 2.0 | 0.00 | 0.00 | 0.08 | 98 | 1008.1 |
| 20260505192403 | 51 | 78 | 1.0 | 2.0 | 0.00 | 0.00 | 0.08 | 98 | 1008.1 |
| 20260505191903 | 51 | 106 | 1.0 | 3.0 | 0.00 | 0.00 | 0.08 | 98 | 1008.1 |
| 20260505191403 | 51 | 61 | 2.0 | 4.0 | 0.00 | 0.00 | 0.08 | 98 | 1008.1 |
| 20260505190913 | 51 | 73 | 2.0 | 4.0 | 0.00 | 0.00 | 0.08 | 97 | 1008.1 |
| 20260505190403 | 51 | 109 | 2.0 | 3.0 | 0.00 | 0.00 | 0.08 | 97 | 1008.0 |
| 20260505185904 | 51 | 70 | 1.0 | 2.0 | 0.00 | 0.00 | 0.08 | 97 | 1008.0 |
| 20260505172903 | 52 | 105 | 3.0 | 5.0 | 0.00 | 0.00 | 0.08 | 96 | 1008.0 |
| 20260505172404 | 52 | 90 | 1.0 | 3.0 | 0.00 | 0.00 | 0.08 | 96 | 1008.1 |
| 20260505171904 | 52 | 70 | 2.0 | 3.0 | 0.00 | 0.00 | 0.08 | 96 | 1008.1 |
| 20260505171413 | 52 | 112 | 2.0 | 4.0 | 0.00 | 0.00 | 0.08 | 96 | 1008.2 |
| 20260505170904 | 52 | 79 | 2.0 | 4.0 | 0.00 | 0.00 | 0.08 | 96 | 1008.1 |
| 20260505170404 | 52 | 246 | 2.0 | 4.0 | 0.00 | 0.00 | 0.08 | 96 | 1008.1 |
| 20260505165913 | 52 | 110 | 2.0 | 4.0 | 0.00 | 0.00 | 0.08 | 96 | 1008.1 |
| 20260505165403 | 52 | 174 | 2.0 | 6.0 | 0.00 | 0.00 | 0.08 | 96 | 1008.1 |
| 20260505164904 | 52 | 243 | 2.0 | 7.0 | 0.00 | 0.00 | 0.08 | 96 | 1008.1 |
| 20260505164404 | 52 | 222 | 2.0 | 4.0 | 0.00 | 0.00 | 0.08 | 96 | 1008.1 |
| 20260505163903 | 52 | 251 | 1.0 | 2.0 | 0.00 | 0.00 | 0.08 | 96 | 1008.1 |
| 20260505163404 | 52 | 152 | 1.0 | 3.0 | 0.00 | 0.00 | 0.08 | 96 | 1008.0 |
| 20260505162913 | 52 | 58 | 2.0 | 6.0 | 0.00 | 0.00 | 0.08 | 95 | 1008.0 |
| 20260505162403 | 52 | 237 | 2.0 | 6.0 | 0.00 | 0.00 | 0.08 | 95 | 1008.1 |
| 20260505161903 | 52 | 286 | 2.0 | 4.0 | 0.00 | 0.00 | 0.08 | 95 | 1008.1 |
| 20260505161404 | 52 | 211 | 1.0 | 4.0 | 0.00 | 0.00 | 0.08 | 95 | 1008.1 |
| 20260505160913 | 53 | 66 | 1.0 | 2.0 | 0.00 | 0.00 | 0.08 | 96 | 1008.1 |
| 20260505160403 | 52 | 141 | 1.0 | 4.0 | 0.00 | 0.00 | 0.08 | 96 | 1008.1 |
| 20260505152913 | 53 | 72 | 1.0 | 4.0 | 0.00 | 0.00 | 0.08 | 95 | 1008.5 |
| 20260505152404 | 53 | 102 | 2.0 | 4.0 | 0.00 | 0.00 | 0.08 | 94 | 1008.5 |
| 20260505151903 | 53 | 69 | 1.0 | 4.0 | 0.00 | 0.00 | 0.08 | 95 | 1008.5 |
| 20260505151413 | 53 | 83 | 2.0 | 2.0 | 0.00 | 0.00 | 0.08 | 95 | 1008.6 |
| 20260505150904 | 53 | 90 | 2.0 | 4.0 | 0.00 | 0.00 | 0.08 | 95 | 1008.6 |
| 20260505150403 | 52 | 93 | 2.0 | 5.0 | 0.00 | 0.00 | 0.08 | 95 | 1008.6 |
| 20260505140403 | 52 | 302 | 1.0 | 2.0 | 0.00 | 0.00 | 0.08 | 95 | 1008.9 |
| 20260505124903 | 52 | 214 | 2.0 | 4.0 | 0.00 | 0.00 | 0.08 | 95 | 1009.3 |
| 20260505124403 | 52 | 102 | 2.0 | 4.0 | 0.00 | 0.00 | 0.08 | 95 | 1009.4 |
| 20260505123903 | 52 | 237 | 2.0 | 4.0 | 0.00 | 0.00 | 0.08 | 96 | 1009.4 |
| 20260505123404 | 52 | 252 | 2.0 | 4.0 | 0.00 | 0.00 | 0.08 | 95 | 1009.4 |
| 20260505122903 | 52 | 44 | 2.0 | 4.0 | 0.00 | 0.00 | 0.08 | 95 | 1009.4 |
| 20260505122403 | 52 | 61 | 1.0 | 3.0 | 0.00 | 0.00 | 0.08 | 96 | 1009.4 |
| 20260505121903 | 52 | 66 | 1.0 | 2.0 | 0.00 | 0.00 | 0.08 | 96 | 1009.4 |
| 20260505121404 | 52 | 66 | 1.0 | 3.0 | 0.00 | 0.00 | 0.08 | 96 | 1009.5 |
| 20260505120903 | 52 | 267 | 1.0 | 4.0 | 0.00 | 0.00 | 0.08 | 96 | 1009.6 |
| 20260505120403 | 52 | 331 | 2.0 | 3.0 | 0.00 | 0.00 | 0.08 | 96 | 1009.5 |
| 20260505115904 | 52 | 315 | 1.0 | 3.0 | 0.00 | 0.00 | 0.08 | 96 | 1009.5 |
| 20260505115403 | 52 | 307 | 1.0 | 4.0 | 0.00 | 0.00 | 0.08 | 96 | 1009.6 |
| 20260505114903 | 52 | 331 | 1.0 | 4.0 | 0.00 | 0.00 | 0.08 | 96 | 1009.6 |
| 20260505114403 | 51 | 187 | 2.0 | 4.0 | 0.00 | 0.00 | 0.08 | 96 | 1009.6 |
| 20260505113914 | 51 | 200 | 1.0 | 4.0 | 0.00 | 0.00 | 0.08 | 96 | 1009.6 |
| 20260505113403 | 51 | 197 | 2.0 | 4.0 | 0.00 | 0.00 | 0.08 | 97 | 1009.6 |
| 20260505112903 | 52 | 300 | 1.0 | 2.0 | 0.00 | 0.00 | 0.08 | 97 | 1009.6 |
| 20260505112404 | 51 | 308 | 2.0 | 4.0 | 0.00 | 0.00 | 0.08 | 97 | 1009.7 |
| 20260505111904 | 51 | 308 | 1.0 | 3.0 | 0.00 | 0.00 | 0.08 | 97 | 1009.6 |
| 20260505111413 | 51 | 229 | 2.0 | 3.0 | 0.00 | 0.00 | 0.08 | 97 | 1009.6 |
| 20260505110903 | 51 | 104 | 2.0 | 5.0 | 0.00 | 0.00 | 0.08 | 97 | 1009.6 |
| 20260505110414 | 51 | 50 | 1.0 | 2.0 | 0.00 | 0.00 | 0.08 | 97 | 1009.6 |
| 20260505101903 | 51 | 172 | 2.0 | 4.0 | 0.00 | 0.00 | 0.08 | 98 | 1009.9 |
| 20260505101403 | 51 | 167 | 1.0 | 4.0 | 0.00 | 0.00 | 0.08 | 98 | 1009.9 |
| 20260505100903 | 51 | 248 | 2.0 | 3.0 | 0.00 | 0.00 | 0.08 | 98 | 1009.9 |
| 20260505100413 | 51 | 242 | 1.0 | 2.0 | 0.00 | 0.00 | 0.08 | 98 | 1009.9 |
| 20260505095903 | 51 | 246 | 1.0 | 2.0 | 0.00 | 0.00 | 0.08 | 98 | 1009.9 |
| 20260505095403 | 51 | 277 | 1.0 | 3.0 | 0.00 | 0.00 | 0.08 | 98 | 1009.8 |
| 20260505094904 | 51 | 253 | 1.0 | 4.0 | 0.00 | 0.00 | 0.08 | 98 | 1009.9 |
| 20260505094404 | 51 | 129 | 1.0 | 3.0 | 0.00 | 0.00 | 0.08 | 98 | 1009.9 |
| 20260505093903 | 51 | 242 | 1.0 | 2.0 | 0.00 | 0.00 | 0.08 | 98 | 1009.9 |
| 20260505093403 | 51 | 110 | 1.0 | 4.0 | 0.00 | 0.00 | 0.08 | 98 | 1010.0 |
| 20260505092904 | 51 | 50 | 1.0 | 4.0 | 0.00 | 0.00 | 0.08 | 98 | 1010.0 |
| 20260505092403 | 51 | 46 | 1.0 | 2.0 | 0.00 | 0.00 | 0.08 | 98 | 1010.0 |
| 20260505091903 | 51 | 22 | 1.0 | 2.0 | 0.00 | 0.00 | 0.08 | 98 | 1010.0 |
| 20260505091403 | 51 | 63 | 1.0 | 2.0 | 0.00 | 0.00 | 0.08 | 98 | 1010.0 |
| 20260505090904 | 51 | 80 | 2.0 | 4.0 | 0.00 | 0.00 | 0.08 | 98 | 1010.0 |
| 20260505090403 | 51 | 74 | 2.0 | 5.0 | 0.00 | 0.00 | 0.08 | 98 | 1010.0 |
| 20260505085903 | 51 | 65 | 1.0 | 2.0 | 0.00 | 0.00 | 0.08 | 98 | 1009.9 |
| 20260505085404 | 51 | 64 | 1.0 | 3.0 | 0.00 | 0.00 | 0.08 | 98 | 1010.0 |
| 20260505084913 | 51 | 200 | 2.0 | 3.0 | 0.00 | 0.00 | 0.08 | 98 | 1009.9 |
| 20260505084403 | 51 | 42 | 1.0 | 2.0 | 0.00 | 0.00 | 0.08 | 98 | 1009.8 |
| 20260505083903 | 51 | 137 | 2.0 | 4.0 | 0.00 | 0.00 | 0.08 | 98 | 1009.8 |
| 20260505083404 | 51 | 205 | 2.0 | 5.0 | 0.00 | 0.00 | 0.08 | 98 | 1009.9 |
| 20260505082904 | 52 | 61 | 1.0 | 3.0 | 0.00 | 0.00 | 0.08 | 98 | 1009.9 |
| 20260505082403 | 52 | 64 | 1.0 | 2.0 | 0.00 | 0.00 | 0.08 | 98 | 1009.9 |
| 20260505081913 | 52 | 89 | 1.0 | 3.0 | 0.00 | 0.00 | 0.08 | 98 | 1009.9 |
| 20260505081404 | 52 | 115 | 1.0 | 4.0 | 0.00 | 0.00 | 0.08 | 98 | 1009.8 |
| 20260505080903 | 52 | 195 | 2.0 | 3.0 | 0.00 | 0.00 | 0.08 | 98 | 1009.8 |
| 20260505080403 | 52 | 312 | 0.0 | 3.0 | 0.00 | 0.00 | 0.08 | 99 | 1009.9 |
| 20260505075904 | 52 | 309 | 1.0 | 3.0 | 0.00 | 0.00 | 0.08 | 99 | 1009.8 |
| 20260505075403 | 52 | 326 | 1.0 | 3.0 | 0.00 | 0.00 | 0.08 | 99 | 1009.8 |
| 20260505074903 | 52 | 346 | 0.0 | 2.0 | 0.00 | 0.00 | 0.08 | 99 | 1009.8 |
| 20260505074403 | 52 | 116 | 1.0 | 4.0 | 0.00 | 0.00 | 0.08 | 99 | 1009.8 |
| 20260505073904 | 52 | 130 | 1.0 | 2.0 | 0.00 | 0.00 | 0.08 | 99 | 1009.8 |
| 20260505073403 | 52 | 39 | 1.0 | 2.0 | 0.00 | 0.00 | 0.08 | 99 | 1009.8 |
| 20260505072903 | 52 | 94 | 0.0 | 1.0 | 0.00 | 0.00 | 0.08 | 99 | 1009.8 |
| 20260505072404 | 52 | 120 | 1.0 | 3.0 | 0.00 | 0.00 | 0.08 | 99 | 1009.8 |
| 20260505071913 | 52 | 247 | 0.0 | 2.0 | 0.00 | 0.00 | 0.08 | 99 | 1009.8 |
| 20260505071403 | 52 | 198 | 1.0 | 2.0 | 0.00 | 0.00 | 0.08 | 99 | 1009.8 |
| 20260505070903 | 52 | 268 | 1.0 | 3.0 | 0.00 | 0.00 | 0.08 | 99 | 1009.8 |
| 20260505070404 | 52 | 313 | 1.0 | 2.0 | 0.00 | 0.00 | 0.08 | 99 | 1009.9 |